Time;durP1;ratioP1;P1;durP2;ratioP2;P2;SDS_P1;SDS_P2;PMS_P1;PMS_P2;Temp;Humidity;BMP_temperature;BMP_pressure;BME280_temperature;BME280_humidity;BME280_pressure;Samples;Min_cycle;Max_cycle;Signal;HPM_P1;HPM_P2
2022/12/05 00:04:02;;;;;;;;;;;3.80;99.90;;;;;;8375983;28;19924;-80
2022/12/05 00:08:03;;;;;;;;;;;3.80;99.90;;;;;;8389138;28;19975;-80
2022/12/05 00:12:05;;;;;;;;;;;3.80;99.90;;;;;;8390271;28;19928;-80
2022/12/05 00:16:12;;;;;;;;;;;3.90;99.90;;;;;;8387851;28;19924;-80
2022/12/05 00:20:13;;;;;;;;;;;3.90;99.90;;;;;;8382185;28;19933;-80
2022/12/05 00:24:15;;;;;;;;;;;3.90;99.90;;;;;;8382944;28;19928;-80
2022/12/05 00:28:17;;;;;;;;;;;3.90;99.90;;;;;;8390473;28;19932;-80
2022/12/05 00:32:19;;;;;;;;;;;3.90;99.90;;;;;;8387654;28;20577;-80
2022/12/05 00:36:22;;;;;;;;;;;3.90;99.90;;;;;;8387761;28;20360;-80
2022/12/05 00:40:23;;;;;;;;;;;3.90;99.90;;;;;;8384978;28;19932;-81
2022/12/05 00:44:25;;;;;;;;;;;3.90;99.90;;;;;;8392918;28;20368;-80
2022/12/05 00:48:27;;;;;;;;;;;3.90;99.90;;;;;;8391853;28;20410;-80
2022/12/05 00:52:28;;;;;;;;;;;3.90;99.90;;;;;;8388973;28;19978;-80
2022/12/05 00:56:31;;;;;;;;;;;3.90;99.90;;;;;;8381018;28;19929;-80
2022/12/05 01:00:32;;;;;;;;;;;3.90;99.90;;;;;;8390463;28;20376;-81
2022/12/05 01:04:34;;;;;;;;;;;4.00;99.90;;;;;;8381590;28;19979;-80
2022/12/05 01:08:36;;;;;;;;;;;4.00;99.90;;;;;;8388829;28;20403;-81
2022/12/05 01:12:38;;;;;;;;;;;4.00;99.90;;;;;;8368338;28;19990;-81
2022/12/05 01:16:41;;;;;;;;;;;4.00;99.90;;;;;;8384295;28;19931;-80
2022/12/05 01:20:42;;;;;;;;;;;4.00;99.90;;;;;;8382575;28;19929;-80
2022/12/05 01:24:44;;;;;;;;;;;4.00;99.90;;;;;;8390416;28;19928;-80
2022/12/05 01:28:46;;;;;;;;;;;4.00;99.90;;;;;;8396645;28;19932;-81
2022/12/05 01:32:48;;;;;;;;;;;4.00;99.90;;;;;;8392871;28;20277;-80
2022/12/05 01:36:49;;;;;;;;;;;4.00;99.90;;;;;;8387453;28;19928;-80
2022/12/05 01:41:02;;;;;;;;;;;4.00;99.90;;;;;;8371839;28;19940;-80
2022/12/05 01:45:12;;;;;;;;;;;4.10;99.90;;;;;;8364359;28;19967;-80
2022/12/05 01:49:35;;;;;;;;;;;4.10;99.90;;;;;;8386899;28;19970;-81
2022/12/05 01:53:36;;;;;;;;;;;4.10;99.90;;;;;;8393176;28;19980;-80
2022/12/05 01:57:38;;;;;;;;;;;4.10;99.90;;;;;;8378811;28;19928;-81
2022/12/05 02:01:40;;;;;;;;;;;4.10;99.90;;;;;;8385377;28;19928;-80
2022/12/05 02:05:42;;;;;;;;;;;4.10;99.90;;;;;;8381024;28;19935;-80
2022/12/05 02:09:44;;;;;;;;;;;4.10;99.90;;;;;;8381984;28;19925;-81
2022/12/05 02:13:55;;;;;;;;;;;4.10;99.90;;;;;;8386390;28;20363;-80
2022/12/05 02:18:05;;;;;;;;;;;4.10;99.90;;;;;;8383665;28;20395;-80
2022/12/05 02:22:21;;;;;;;;;;;4.10;99.90;;;;;;8369753;28;20426;-80
2022/12/05 02:26:52;;;;;;;;;;;4.10;99.90;;;;;;8354269;28;19929;-81
2022/12/05 02:30:59;;;;;;;;;;;4.10;99.90;;;;;;8360836;28;20027;-81
2022/12/05 02:35:11;;;;;;;;;;;4.20;99.90;;;;;;8359221;28;20333;-81
2022/12/05 02:39:20;;;;;;;;;;;4.10;99.90;;;;;;8363230;28;20410;-80
2022/12/05 02:43:25;;;;;;;;;;;4.20;99.90;;;;;;8346437;28;20557;-80
2022/12/05 02:47:28;;;;;;;;;;;4.20;99.90;;;;;;8346951;28;19928;-80
2022/12/05 02:51:32;;;;;;;;;;;4.20;99.90;;;;;;8372514;28;19967;-80
2022/12/05 02:55:34;;;;;;;;;;;4.20;99.90;;;;;;8364011;28;19933;-80
2022/12/05 02:59:35;;;;;;;;;;;4.20;99.90;;;;;;8351564;28;19947;-80
2022/12/05 03:03:37;;;;;;;;;;;4.20;99.90;;;;;;8375083;28;19971;-81
2022/12/05 03:07:39;;;;;;;;;;;4.20;99.90;;;;;;8353231;28;19933;-81
2022/12/05 03:11:45;;;;;;;;;;;4.20;99.90;;;;;;8359075;28;19943;-80
2022/12/05 03:15:50;;;;;;;;;;;4.30;99.90;;;;;;8353978;28;19936;-81
2022/12/05 03:19:57;;;;;;;;;;;4.30;99.90;;;;;;8355461;28;19971;-80
2022/12/05 03:39:31;;;;;;;;;;;4.30;99.90;;;;;;8391336;28;19927;-80
2022/12/05 03:43:52;;;;;;;;;;;4.40;99.90;;;;;;8382886;28;20270;-80
2022/12/05 03:48:03;;;;;;;;;;;4.40;99.90;;;;;;8386714;28;19956;-80
2022/12/05 03:52:10;;;;;;;;;;;4.40;99.90;;;;;;8392258;28;19932;-81
2022/12/05 04:01:46;;;;;;;;;;;4.40;99.90;;;;;;8388033;28;20363;-80
2022/12/05 04:05:48;;;;;;;;;;;4.40;99.90;;;;;;8392537;28;19935;-81
2022/12/05 04:09:53;;;;;;;;;;;4.40;99.90;;;;;;8365847;28;19929;-80
2022/12/05 04:14:05;;;;;;;;;;;4.50;99.90;;;;;;8389918;28;19929;-81
2022/12/05 04:18:07;;;;;;;;;;;4.50;99.90;;;;;;8385500;28;19931;-81
2022/12/05 04:22:09;;;;;;;;;;;4.50;99.90;;;;;;8389254;28;19947;-80
2022/12/05 04:26:19;;;;;;;;;;;4.50;99.90;;;;;;8395097;28;19924;-80
2022/12/05 04:30:23;;;;;;;;;;;4.50;99.90;;;;;;8365715;28;19925;-80
2022/12/05 04:34:27;;;;;;;;;;;4.60;99.90;;;;;;8387293;28;20298;-80
2022/12/05 04:38:31;;;;;;;;;;;4.60;99.90;;;;;;8386616;28;19961;-81
2022/12/05 04:42:34;;;;;;;;;;;4.50;99.90;;;;;;8375551;28;19924;-80
2022/12/05 04:46:37;;;;;;;;;;;4.60;99.90;;;;;;8390309;28;19933;-81
2022/12/05 04:50:40;;;;;;;;;;;4.60;99.90;;;;;;8371200;28;19925;-80
2022/12/05 04:54:44;;;;;;;;;;;4.60;99.90;;;;;;8370315;28;19939;-81
2022/12/05 04:58:46;;;;;;;;;;;4.60;99.90;;;;;;8347793;28;19936;-82
2022/12/05 05:02:58;;;;;;;;;;;4.60;99.90;;;;;;8374716;28;20202;-80
2022/12/05 05:07:03;;;;;;;;;;;4.60;99.90;;;;;;8384786;28;19930;-80
2022/12/05 05:11:05;;;;;;;;;;;4.60;99.90;;;;;;8397062;28;19929;-80
2022/12/05 05:15:07;;;;;;;;;;;4.60;99.90;;;;;;8394648;28;19928;-80
2022/12/05 05:19:09;;;;;;;;;;;4.60;99.90;;;;;;8382169;28;20392;-80
2022/12/05 05:23:11;;;;;;;;;;;4.60;99.90;;;;;;8373212;28;20651;-80
2022/12/05 05:27:14;;;;;;;;;;;4.60;99.90;;;;;;8374400;28;20412;-80
2022/12/05 05:31:17;;;;;;;;;;;4.60;99.90;;;;;;8390812;28;19924;-80
2022/12/05 05:35:19;;;;;;;;;;;4.70;99.90;;;;;;8361852;28;19932;-80
2022/12/05 05:39:21;;;;;;;;;;;4.70;99.90;;;;;;8389547;28;20439;-80
2022/12/05 05:43:23;;;;;;;;;;;4.70;99.90;;;;;;8377516;28;20043;-81
2022/12/05 05:47:24;;;;;;;;;;;4.70;99.90;;;;;;8379803;28;20443;-80
2022/12/05 05:51:28;;;;;;;;;;;4.70;99.90;;;;;;8382480;28;20098;-80
2022/12/05 05:55:29;;;;;;;;;;;4.70;99.90;;;;;;8387197;28;20291;-81
2022/12/05 05:59:31;;;;;;;;;;;4.80;99.90;;;;;;8375023;28;19924;-80
2022/12/05 06:03:33;;;;;;;;;;;4.70;99.90;;;;;;8390686;28;19931;-80
2022/12/05 06:07:35;;;;;;;;;;;4.80;99.90;;;;;;8377038;28;19970;-80
2022/12/05 06:11:37;;;;;;;;;;;4.80;99.90;;;;;;8389529;28;19935;-80
2022/12/05 06:15:39;;;;;;;;;;;4.80;99.90;;;;;;8388221;28;19960;-80
2022/12/05 06:19:40;;;;;;;;;;;4.80;99.90;;;;;;8390705;28;19925;-80
2022/12/05 06:23:42;;;;;;;;;;;4.80;99.90;;;;;;8383106;28;19931;-80
2022/12/05 06:27:43;;;;;;;;;;;4.90;99.90;;;;;;8364799;28;20570;-80
2022/12/05 06:31:45;;;;;;;;;;;4.90;99.90;;;;;;8383778;28;19933;-79
2022/12/05 06:35:47;;;;;;;;;;;4.90;99.90;;;;;;8372413;28;20323;-79
2022/12/05 06:39:49;;;;;;;;;;;4.90;99.90;;;;;;8366850;28;20314;-80
2022/12/05 06:43:53;;;;;;;;;;;4.90;99.90;;;;;;8380195;28;20351;-80
2022/12/05 06:47:57;;;;;;;;;;;5.00;99.90;;;;;;8395738;28;19935;-80
2022/12/05 06:51:59;;;;;;;;;;;5.00;99.90;;;;;;8391015;28;20015;-79
2022/12/05 06:56:02;;;;;;;;;;;5.00;99.90;;;;;;8391825;28;19925;-81
2022/12/05 07:04:25;;;;;;;;;;;5.00;99.90;;;;;;8383564;28;20051;-80
2022/12/05 07:08:26;;;;;;;;;;;5.10;99.90;;;;;;8393119;28;19975;-81
2022/12/05 07:12:28;;;;;;;;;;;5.10;99.90;;;;;;8379780;28;20398;-81
2022/12/05 07:16:30;;;;;;;;;;;5.10;99.90;;;;;;8392205;28;20353;-80
2022/12/05 07:20:32;;;;;;;;;;;5.10;99.90;;;;;;8390842;28;19946;-80
2022/12/05 07:24:53;;;;;;;;;;;5.10;99.90;;;;;;8387971;28;20636;-80
2022/12/05 07:28:56;;;;;;;;;;;5.10;99.90;;;;;;8393750;28;20439;-80
2022/12/05 07:32:57;;;;;;;;;;;5.20;99.90;;;;;;8391577;28;20005;-81
2022/12/05 07:36:59;;;;;;;;;;;5.20;99.90;;;;;;8392915;28;20413;-80
2022/12/05 07:41:05;;;;;;;;;;;5.20;99.90;;;;;;8386930;28;19938;-80
2022/12/05 07:45:12;;;;;;;;;;;5.20;99.90;;;;;;8391971;28;19933;-81
2022/12/05 07:49:14;;;;;;;;;;;5.20;99.90;;;;;;8395586;28;19935;-80
2022/12/05 07:53:16;;;;;;;;;;;5.20;99.90;;;;;;8392414;28;20406;-79
2022/12/05 07:57:18;;;;;;;;;;;5.30;99.90;;;;;;8372283;28;19928;-81
2022/12/05 08:01:22;;;;;;;;;;;5.30;99.90;;;;;;8391190;28;19931;-81
2022/12/05 08:05:23;;;;;;;;;;;5.30;99.90;;;;;;8395831;28;20017;-80
2022/12/05 08:09:25;;;;;;;;;;;5.30;99.90;;;;;;8389725;28;19928;-79
2022/12/05 08:13:28;;;;;;;;;;;5.30;99.90;;;;;;8392542;28;19924;-80
2022/12/05 08:17:31;;;;;;;;;;;5.40;99.90;;;;;;8391148;28;19974;-81
2022/12/05 08:21:33;;;;;;;;;;;5.30;99.90;;;;;;8401683;28;19929;-80
2022/12/05 08:25:34;;;;;;;;;;;5.40;99.90;;;;;;8392834;28;19933;-81
2022/12/05 08:29:36;;;;;;;;;;;5.40;99.90;;;;;;8375747;28;20007;-81
2022/12/05 08:33:38;;;;;;;;;;;5.40;99.90;;;;;;8391220;28;19935;-81
2022/12/05 08:37:39;;;;;;;;;;;5.40;99.90;;;;;;8393506;28;19964;-80
2022/12/05 08:41:42;;;;;;;;;;;5.50;99.90;;;;;;8391588;28;19924;-80
2022/12/05 08:45:50;;;;;;;;;;;5.50;99.90;;;;;;8387557;28;19925;-82
2022/12/05 08:49:52;;;;;;;;;;;5.50;99.90;;;;;;8392976;28;19925;-81
2022/12/05 08:53:55;;;;;;;;;;;5.60;99.90;;;;;;8390446;28;20356;-81
2022/12/05 08:57:56;;;;;;;;;;;5.60;99.90;;;;;;8378643;28;20437;-81
2022/12/05 09:01:58;;;;;;;;;;;5.60;99.90;;;;;;8393820;28;19931;-81
2022/12/05 09:06:07;;;;;;;;;;;5.60;99.90;;;;;;8386913;28;20782;-80
2022/12/05 09:10:10;;;;;;;;;;;5.70;99.90;;;;;;8384338;28;20338;-80
2022/12/05 09:14:11;;;;;;;;;;;5.70;99.90;;;;;;8394706;28;19925;-80
2022/12/05 09:18:14;;;;;;;;;;;5.70;99.90;;;;;;8399922;28;19974;-80
2022/12/05 09:22:16;;;;;;;;;;;5.70;99.90;;;;;;8384471;28;20312;-80
2022/12/05 09:26:19;;;;;;;;;;;5.70;99.90;;;;;;8392449;28;20027;-80
2022/12/05 09:30:21;;;;;;;;;;;5.80;99.90;;;;;;8386934;28;19928;-80
2022/12/05 09:34:24;;;;;;;;;;;5.80;99.90;;;;;;8391476;28;19983;-81
2022/12/05 09:38:26;;;;;;;;;;;5.80;99.90;;;;;;8386836;28;20406;-80
2022/12/05 09:42:36;;;;;;;;;;;5.80;99.90;;;;;;8395725;28;19940;-80
2022/12/05 09:46:44;;;;;;;;;;;5.90;99.90;;;;;;8384472;28;19971;-80
2022/12/05 09:50:53;;;;;;;;;;;5.90;99.90;;;;;;8387843;28;20295;-80
2022/12/05 09:54:55;;;;;;;;;;;5.90;99.90;;;;;;8386942;28;19925;-81
2022/12/05 09:58:59;;;;;;;;;;;6.00;99.90;;;;;;8374466;28;19995;-81
2022/12/05 10:03:20;;;;;;;;;;;5.90;99.90;;;;;;8394135;28;19924;-80
2022/12/05 10:07:30;;;;;;;;;;;6.00;99.90;;;;;;8357828;28;20304;-79
2022/12/05 10:11:47;;;;;;;;;;;6.00;99.90;;;;;;8385834;28;19924;-80
2022/12/05 10:15:55;;;;;;;;;;;6.00;99.90;;;;;;8385767;28;20028;-80
2022/12/05 10:19:59;;;;;;;;;;;6.00;99.90;;;;;;8388199;28;19931;-80
2022/12/05 10:24:03;;;;;;;;;;;6.00;99.90;;;;;;8384019;28;19975;-80
2022/12/05 10:28:25;;;;;;;;;;;6.00;99.90;;;;;;8390999;28;19964;-80
2022/12/05 10:32:45;;;;;;;;;;;6.00;99.90;;;;;;8372775;28;19935;-80
2022/12/05 10:36:53;;;;;;;;;;;6.00;99.90;;;;;;8386133;28;19932;-79
2022/12/05 10:40:57;;;;;;;;;;;6.00;99.90;;;;;;8369592;28;19928;-80
2022/12/05 10:45:04;;;;;;;;;;;6.10;99.90;;;;;;8382133;28;19925;-80
2022/12/05 10:49:10;;;;;;;;;;;6.10;99.90;;;;;;8393237;28;19956;-79
2022/12/05 10:53:14;;;;;;;;;;;6.10;99.90;;;;;;8392145;28;20996;-80
2022/12/05 10:57:23;;;;;;;;;;;6.10;99.90;;;;;;8371379;28;19950;-79
2022/12/05 11:01:25;;;;;;;;;;;6.20;99.90;;;;;;8368010;28;19925;-79
2022/12/05 11:05:27;;;;;;;;;;;6.20;99.90;;;;;;8367853;28;20295;-80
2022/12/05 11:09:30;;;;;;;;;;;6.20;99.90;;;;;;8349697;28;20800;-80
2022/12/05 11:13:33;;;;;;;;;;;6.20;99.90;;;;;;8364828;28;20204;-80
2022/12/05 11:17:36;;;;;;;;;;;6.20;99.90;;;;;;8364083;28;19972;-80
2022/12/05 11:21:41;;;;;;;;;;;6.20;99.90;;;;;;8370419;28;19974;-80
2022/12/05 11:25:43;;;;;;;;;;;6.30;99.90;;;;;;8369323;28;20523;-81
2022/12/05 11:29:56;;;;;;;;;;;6.30;99.90;;;;;;8375235;28;19925;-80
2022/12/05 11:34:00;;;;;;;;;;;6.30;99.90;;;;;;8377060;28;20039;-81
2022/12/05 11:38:03;;;;;;;;;;;6.30;99.90;;;;;;8362630;28;19928;-80
2022/12/05 11:42:23;;;;;;;;;;;6.30;99.90;;;;;;8368017;28;19931;-80
2022/12/05 11:46:32;;;;;;;;;;;6.30;99.90;;;;;;8374761;28;19975;-79
2022/12/05 11:50:52;;;;;;;;;;;6.30;99.90;;;;;;8379154;28;20015;-81
2022/12/05 11:55:18;;;;;;;;;;;6.40;99.90;;;;;;8384498;28;19925;-80
2022/12/05 11:59:29;;;;;;;;;;;6.40;99.90;;;;;;8362375;28;19925;-79
2022/12/05 12:03:34;;;;;;;;;;;6.40;99.90;;;;;;8368717;28;19925;-80
2022/12/05 12:07:59;;;;;;;;;;;6.40;99.90;;;;;;8362625;28;19932;-80
2022/12/05 12:12:09;;;;;;;;;;;6.40;99.90;;;;;;8364209;28;19939;-81
2022/12/05 12:16:16;;;;;;;;;;;6.40;99.90;;;;;;8373373;28;20023;-80
2022/12/05 12:20:24;;;;;;;;;;;6.40;99.90;;;;;;8375332;28;20367;-80
2022/12/05 12:24:46;;;;;;;;;;;6.40;99.90;;;;;;8367467;28;19932;-80
2022/12/05 12:29:07;;;;;;;;;;;6.50;99.90;;;;;;8367949;28;20016;-81
2022/12/05 12:33:20;;;;;;;;;;;6.50;99.90;;;;;;8391013;28;20292;-78
2022/12/05 12:37:34;;;;;;;;;;;6.50;99.90;;;;;;8367039;28;20380;-80
2022/12/05 12:41:42;;;;;;;;;;;6.60;99.90;;;;;;8375219;28;20145;-80
2022/12/05 12:46:06;;;;;;;;;;;6.60;99.90;;;;;;8364427;28;20395;-81
2022/12/05 12:50:20;;;;;;;;;;;6.60;99.90;;;;;;8375130;28;19928;-81
2022/12/05 12:54:27;;;;;;;;;;;6.60;99.90;;;;;;8377233;28;19924;-81
2022/12/05 12:58:55;;;;;;;;;;;6.60;99.90;;;;;;8365721;28;20546;-80
2022/12/05 13:03:09;;;;;;;;;;;6.60;99.90;;;;;;8370772;28;20392;-80
2022/12/05 13:07:13;;;;;;;;;;;6.60;99.90;;;;;;8365862;28;20314;-79
2022/12/05 13:11:16;;;;;;;;;;;6.60;99.90;;;;;;8375109;28;19932;-79
2022/12/05 13:15:46;;;;;;;;;;;6.60;99.90;;;;;;8370914;28;19935;-78
2022/12/05 13:19:51;;;;;;;;;;;6.60;99.90;;;;;;8374772;28;19940;-78
2022/12/05 13:23:55;;;;;;;;;;;6.60;99.90;;;;;;8379284;28;19931;-79
2022/12/05 13:27:59;;;;;;;;;;;6.60;99.90;;;;;;8375513;28;19975;-79
2022/12/05 13:32:02;;;;;;;;;;;6.60;99.90;;;;;;8376872;28;19933;-80
2022/12/05 13:44:52;;;;;;;;;;;6.60;99.90;;;;;;8376458;28;20380;-80
2022/12/05 13:49:04;;;;;;;;;;;6.60;99.90;;;;;;8367735;28;19959;-79
2022/12/05 13:53:27;;;;;;;;;;;6.60;99.90;;;;;;8375145;28;19925;-80
2022/12/05 13:57:34;;;;;;;;;;;6.60;99.90;;;;;;8361519;28;19979;-80
2022/12/05 14:01:39;;;;;;;;;;;6.60;99.90;;;;;;8363853;28;19962;-79
2022/12/05 14:05:50;;;;;;;;;;;6.60;99.90;;;;;;8369442;28;19936;-79
2022/12/05 14:09:53;;;;;;;;;;;6.50;99.90;;;;;;8365988;28;19924;-80
2022/12/05 14:13:55;;;;;;;;;;;6.50;99.90;;;;;;8356967;28;19931;-79
2022/12/05 14:18:19;;;;;;;;;;;6.50;99.90;;;;;;8381050;28;19931;-79
2022/12/05 14:22:28;;;;;;;;;;;6.50;99.90;;;;;;8376780;28;19925;-79
2022/12/05 14:26:48;;;;;;;;;;;6.50;99.90;;;;;;8375325;28;19932;-79
2022/12/05 14:31:22;;;;;;;;;;;6.50;99.90;;;;;;8389605;28;19928;-79
2022/12/05 14:35:27;;;;;;;;;;;6.50;99.90;;;;;;8359017;28;19933;-79
2022/12/05 14:39:37;;;;;;;;;;;6.50;99.90;;;;;;8378320;28;19936;-79
2022/12/05 14:43:39;;;;;;;;;;;6.40;99.90;;;;;;8369192;28;19932;-79
2022/12/05 14:47:49;;;;;;;;;;;6.50;99.90;;;;;;8369828;28;19924;-79
2022/12/05 14:51:57;;;;;;;;;;;6.50;99.90;;;;;;8376455;28;19930;-79
2022/12/05 14:55:58;;;;;;;;;;;6.50;99.90;;;;;;8358205;28;19932;-79
2022/12/05 15:00:05;;;;;;;;;;;6.50;99.90;;;;;;8372355;28;19929;-79
2022/12/05 15:04:14;;;;;;;;;;;6.50;99.90;;;;;;8371315;28;20179;-78
2022/12/05 15:08:16;;;;;;;;;;;6.50;99.90;;;;;;8369154;28;20033;-79
2022/12/05 15:12:39;;;;;;;;;;;6.50;99.90;;;;;;8370306;28;19950;-79
2022/12/05 15:16:42;;;;;;;;;;;6.50;99.90;;;;;;8373343;28;20039;-79
2022/12/05 15:20:46;;;;;;;;;;;6.50;99.90;;;;;;8374530;28;19968;-79
2022/12/05 15:24:48;;;;;;;;;;;6.50;99.90;;;;;;8360355;28;20003;-73
2022/12/05 15:29:01;;;;;;;;;;;6.40;99.90;;;;;;8362239;28;20079;-73
2022/12/05 15:33:02;;;;;;;;;;;6.40;99.90;;;;;;8356687;28;19932;-73
2022/12/05 15:37:07;;;;;;;;;;;6.50;99.90;;;;;;8361637;28;20004;-73
2022/12/05 15:41:16;;;;;;;;;;;6.40;99.90;;;;;;8361649;28;20236;-73
2022/12/05 15:45:22;;;;;;;;;;;6.50;99.90;;;;;;8358307;28;20016;-73
2022/12/05 15:49:24;;;;;;;;;;;6.40;99.90;;;;;;8352764;28;19993;-73
2022/12/05 15:53:39;;;;;;;;;;;6.40;99.90;;;;;;8366995;28;19966;-72
2022/12/05 15:57:43;;;;;;;;;;;6.40;99.90;;;;;;8367750;28;19939;-73
2022/12/05 16:01:54;;;;;;;;;;;6.30;99.90;;;;;;8366368;28;20300;-73
2022/12/05 16:06:02;;;;;;;;;;;6.40;99.90;;;;;;8371793;28;19971;-73
2022/12/05 16:10:05;;;;;;;;;;;6.30;99.90;;;;;;8362190;28;20020;-73
2022/12/05 16:14:07;;;;;;;;;;;6.40;99.90;;;;;;8363212;28;19968;-73
2022/12/05 16:18:22;;;;;;;;;;;6.30;99.90;;;;;;8361074;28;19925;-73
2022/12/05 16:22:25;;;;;;;;;;;6.40;99.90;;;;;;8353505;28;19962;-73
2022/12/05 16:26:26;;;;;;;;;;;6.30;99.90;;;;;;8362398;28;19929;-73
2022/12/05 16:30:28;;;;;;;;;;;6.30;99.90;;;;;;8358108;28;19925;-73
2022/12/05 16:34:31;;;;;;;;;;;6.40;99.90;;;;;;8342303;28;19938;-73
2022/12/05 16:38:33;;;;;;;;;;;6.30;99.90;;;;;;8346900;28;19963;-73
2022/12/05 16:42:36;;;;;;;;;;;6.30;99.90;;;;;;8347531;28;20027;-73
2022/12/05 16:46:37;;;;;;;;;;;6.40;99.90;;;;;;8364398;28;20023;-73
2022/12/05 16:50:39;;;;;;;;;;;6.30;99.90;;;;;;8352255;28;19967;-73
2022/12/05 16:54:44;;;;;;;;;;;6.40;99.90;;;;;;8357651;28;19935;-73
2022/12/05 16:58:46;;;;;;;;;;;6.30;99.90;;;;;;8358562;28;20378;-73
2022/12/05 17:02:48;;;;;;;;;;;6.40;99.90;;;;;;8358087;28;19940;-73
2022/12/05 17:06:49;;;;;;;;;;;6.40;99.90;;;;;;8356485;28;19925;-73
2022/12/05 17:10:51;;;;;;;;;;;6.40;99.90;;;;;;8358525;28;20293;-73
2022/12/05 17:14:53;;;;;;;;;;;6.40;99.90;;;;;;8358532;28;19937;-73
2022/12/05 17:18:54;;;;;;;;;;;6.40;99.90;;;;;;8357631;28;19924;-73
2022/12/05 17:22:56;;;;;;;;;;;6.40;99.90;;;;;;8352744;28;19942;-73
2022/12/05 17:26:58;;;;;;;;;;;6.40;99.90;;;;;;8363533;28;19964;-73
2022/12/05 17:30:59;;;;;;;;;;;6.30;99.90;;;;;;8364719;28;20445;-72
2022/12/05 17:35:01;;;;;;;;;;;6.40;99.90;;;;;;8363117;28;19971;-73
2022/12/05 17:39:08;;;;;;;;;;;6.40;99.90;;;;;;8355795;28;19928;-73
2022/12/05 17:43:15;;;;;;;;;;;6.40;99.90;;;;;;8354920;28;19975;-73
2022/12/05 17:47:23;;;;;;;;;;;6.40;99.90;;;;;;8359195;28;20360;-73
2022/12/05 17:51:25;;;;;;;;;;;6.40;99.90;;;;;;8352047;28;19980;-73
2022/12/05 17:55:27;;;;;;;;;;;6.40;99.90;;;;;;8354796;28;19931;-73
2022/12/05 17:59:29;;;;;;;;;;;6.40;99.90;;;;;;8353273;28;20337;-74
2022/12/05 18:03:30;;;;;;;;;;;6.40;99.90;;;;;;8348902;28;19950;-72
2022/12/05 18:07:32;;;;;;;;;;;6.40;99.90;;;;;;8335588;28;19928;-72
2022/12/05 18:11:34;;;;;;;;;;;6.40;99.90;;;;;;8354388;28;19929;-72
2022/12/05 18:15:36;;;;;;;;;;;6.40;99.90;;;;;;8354278;28;20295;-72
2022/12/05 18:19:43;;;;;;;;;;;6.40;99.90;;;;;;8348458;28;19929;-72
2022/12/05 18:24:13;;;;;;;;;;;6.40;99.90;;;;;;8351632;28;20022;-72
2022/12/05 18:28:14;;;;;;;;;;;6.40;99.90;;;;;;8368336;28;19943;-72
2022/12/05 18:37:22;;;;;;;;;;;6.40;99.90;;;;;;8356689;28;19947;-72
2022/12/05 18:41:25;;;;;;;;;;;6.40;99.90;;;;;;8351882;28;19952;-71
2022/12/05 18:50:30;;;;;;;;;;;6.40;99.90;;;;;;8355667;28;20014;-72
2022/12/05 18:54:31;;;;;;;;;;;6.40;99.90;;;;;;8354145;28;20031;-72
2022/12/05 18:58:33;;;;;;;;;;;6.40;99.90;;;;;;8336950;28;20066;-71
2022/12/05 19:02:35;;;;;;;;;;;6.40;99.90;;;;;;8356068;28;20775;-71
2022/12/05 19:06:38;;;;;;;;;;;6.40;99.90;;;;;;8358386;28;19929;-72
2022/12/05 19:15:43;;;;;;;;;;;6.40;99.90;;;;;;8358077;28;20460;-72
2022/12/05 19:19:45;;;;;;;;;;;6.40;99.90;;;;;;8363895;28;19939;-72
2022/12/05 19:23:46;;;;;;;;;;;6.40;99.90;;;;;;8357176;28;20398;-72
2022/12/05 19:27:48;;;;;;;;;;;6.40;99.90;;;;;;8360561;28;19932;-71
2022/12/05 19:31:49;;;;;;;;;;;6.40;99.90;;;;;;8356582;28;19925;-71
2022/12/05 19:35:51;;;;;;;;;;;6.40;99.90;;;;;;8340099;28;19936;-71
2022/12/05 19:39:53;;;;;;;;;;;6.40;99.90;;;;;;8360929;28;19924;-71
2022/12/05 19:43:58;;;;;;;;;;;6.40;99.90;;;;;;8340925;28;20396;-72
2022/12/05 19:47:59;;;;;;;;;;;6.40;99.90;;;;;;8355116;28;20264;-71
2022/12/05 19:52:01;;;;;;;;;;;6.40;99.90;;;;;;8350621;28;19939;-72
2022/12/05 19:56:04;;;;;;;;;;;6.40;99.90;;;;;;8357837;28;19933;-72
2022/12/05 20:00:06;;;;;;;;;;;6.40;99.90;;;;;;8355678;28;20029;-72
2022/12/05 20:04:09;;;;;;;;;;;6.40;99.90;;;;;;8362603;28;19931;-72
2022/12/05 20:08:11;;;;;;;;;;;6.40;99.90;;;;;;8359223;28;19964;-72
2022/12/05 20:12:13;;;;;;;;;;;6.40;99.90;;;;;;8358199;28;19932;-71
2022/12/05 20:16:17;;;;;;;;;;;6.40;99.90;;;;;;8340271;28;19936;-72
2022/12/05 20:20:21;;;;;;;;;;;6.40;99.90;;;;;;8355575;28;19932;-72
2022/12/05 20:24:23;;;;;;;;;;;6.40;99.90;;;;;;8354126;28;20184;-72
2022/12/05 20:28:25;;;;;;;;;;;6.40;99.90;;;;;;8355808;28;19935;-72
2022/12/05 20:32:26;;;;;;;;;;;6.40;99.90;;;;;;8341874;28;19924;-72
2022/12/05 20:36:29;;;;;;;;;;;6.40;99.90;;;;;;8349419;28;19962;-71
2022/12/05 20:40:30;;;;;;;;;;;6.40;99.90;;;;;;8353519;28;19925;-72
2022/12/05 20:44:34;;;;;;;;;;;6.40;99.90;;;;;;8331580;28;19960;-71
2022/12/05 20:48:36;;;;;;;;;;;6.40;99.90;;;;;;8350092;28;19928;-71
2022/12/05 20:52:38;;;;;;;;;;;6.40;99.90;;;;;;8353495;28;19933;-71
2022/12/05 20:56:45;;;;;;;;;;;6.40;99.90;;;;;;8353395;28;19968;-71
2022/12/05 21:00:47;;;;;;;;;;;6.40;99.90;;;;;;8353831;28;20011;-72
2022/12/05 21:04:49;;;;;;;;;;;6.40;99.90;;;;;;8357558;28;19925;-72
2022/12/05 21:08:51;;;;;;;;;;;6.40;99.90;;;;;;8353962;28;19947;-71
2022/12/05 21:12:53;;;;;;;;;;;6.30;99.90;;;;;;8353166;28;19931;-72
2022/12/05 21:16:54;;;;;;;;;;;6.30;99.90;;;;;;8370254;28;19931;-72
2022/12/05 21:21:01;;;;;;;;;;;6.30;99.90;;;;;;8362546;28;19925;-72
2022/12/05 21:30:06;;;;;;;;;;;6.30;99.90;;;;;;8356074;28;19963;-72
2022/12/05 21:34:12;;;;;;;;;;;6.30;99.90;;;;;;8349828;28;19935;-72
2022/12/05 21:38:14;;;;;;;;;;;6.40;99.90;;;;;;8357355;28;19929;-71
2022/12/05 21:42:15;;;;;;;;;;;6.30;99.90;;;;;;8354655;28;20388;-72
2022/12/05 21:46:17;;;;;;;;;;;6.40;99.90;;;;;;8355608;28;20030;-72
2022/12/05 21:50:19;;;;;;;;;;;6.40;99.90;;;;;;8352338;28;20384;-71
2022/12/05 21:54:20;;;;;;;;;;;6.30;99.90;;;;;;8350512;28;20024;-71
2022/12/05 21:58:22;;;;;;;;;;;6.40;99.90;;;;;;8351225;28;19929;-72
2022/12/05 22:02:24;;;;;;;;;;;6.40;99.90;;;;;;8366943;28;20019;-72
2022/12/05 22:06:26;;;;;;;;;;;6.40;99.90;;;;;;8385370;28;19928;-72
2022/12/05 22:10:27;;;;;;;;;;;6.40;99.90;;;;;;8357938;28;19932;-71
2022/12/05 22:14:29;;;;;;;;;;;6.40;99.90;;;;;;8381549;28;20260;-72
2022/12/05 22:18:31;;;;;;;;;;;6.40;99.90;;;;;;8388757;28;19967;-72
2022/12/05 22:32:40;;;;;;;;;;;6.40;99.90;;;;;;8380453;28;19951;-72
2022/12/05 22:36:42;;;;;;;;;;;6.40;99.90;;;;;;8392110;28;19925;-72
2022/12/05 22:40:43;;;;;;;;;;;6.40;99.90;;;;;;8388054;28;19935;-72
2022/12/05 22:44:45;;;;;;;;;;;6.30;99.90;;;;;;8387872;28;19925;-72
2022/12/05 22:48:47;;;;;;;;;;;6.40;99.90;;;;;;8387362;28;19979;-72
2022/12/05 22:52:49;;;;;;;;;;;6.40;99.90;;;;;;8367716;28;19976;-72
2022/12/05 22:56:51;;;;;;;;;;;6.40;99.90;;;;;;8376145;28;19967;-72
2022/12/05 23:00:53;;;;;;;;;;;6.40;99.90;;;;;;8385936;28;19924;-72
2022/12/05 23:04:54;;;;;;;;;;;6.40;99.90;;;;;;8386397;28;20391;-72
2022/12/05 23:08:56;;;;;;;;;;;6.40;99.90;;;;;;8385974;28;19925;-72
2022/12/05 23:12:58;;;;;;;;;;;6.50;99.90;;;;;;8375725;28;20041;-72
2022/12/05 23:17:00;;;;;;;;;;;6.40;99.90;;;;;;8392235;28;20348;-72
2022/12/05 23:26:06;;;;;;;;;;;6.40;99.90;;;;;;8386392;28;20399;-72
2022/12/05 23:30:08;;;;;;;;;;;6.40;99.90;;;;;;8385091;28;19933;-72
2022/12/05 23:34:10;;;;;;;;;;;6.40;99.90;;;;;;8366701;28;20312;-72
2022/12/05 23:38:12;;;;;;;;;;;6.40;99.90;;;;;;8359748;28;19924;-72
2022/12/05 23:42:14;;;;;;;;;;;6.40;99.90;;;;;;8390471;28;19936;-72
2022/12/05 23:46:17;;;;;;;;;;;6.40;99.90;;;;;;8361058;28;19932;-72
2022/12/05 23:50:19;;;;;;;;;;;6.40;99.90;;;;;;8366455;28;19932;-72
2022/12/05 23:54:20;;;;;;;;;;;6.30;99.90;;;;;;8381276;28;19932;-72
2022/12/05 23:58:22;;;;;;;;;;;6.30;99.90;;;;;;8387612;28;20411;-71
